sensor_id;sensor_type;location;lat;lon;timestamp;temperature;humidity
31799;DHT22;18374;51.136;3.502;2022-09-17T00:01:28;10.80;99.90
31799;DHT22;18374;51.136;3.502;2022-09-17T00:03:59;10.80;99.90
31799;DHT22;18374;51.136;3.502;2022-09-17T00:06:32;10.80;99.90
31799;DHT22;18374;51.136;3.502;2022-09-17T00:09:02;10.90;99.90
31799;DHT22;18374;51.136;3.502;2022-09-17T00:11:34;10.90;99.90
31799;DHT22;18374;51.136;3.502;2022-09-17T00:14:04;10.90;99.90
31799;DHT22;18374;51.136;3.502;2022-09-17T00:16:40;10.90;99.90
31799;DHT22;18374;51.136;3.502;2022-09-17T00:19:15;11.00;99.90
31799;DHT22;18374;51.136;3.502;2022-09-17T00:21:47;11.00;99.90
31799;DHT22;18374;51.136;3.502;2022-09-17T00:24:16;11.00;99.90
31799;DHT22;18374;51.136;3.502;2022-09-17T00:26:44;11.00;99.90
31799;DHT22;18374;51.136;3.502;2022-09-17T00:29:12;11.00;99.90
31799;DHT22;18374;51.136;3.502;2022-09-17T00:31:40;11.00;99.90
31799;DHT22;18374;51.136;3.502;2022-09-17T00:34:08;11.00;99.90
31799;DHT22;18374;51.136;3.502;2022-09-17T00:36:37;11.00;99.90
31799;DHT22;18374;51.136;3.502;2022-09-17T00:39:08;11.00;99.90
31799;DHT22;18374;51.136;3.502;2022-09-17T00:41:42;11.00;99.90
31799;DHT22;18374;51.136;3.502;2022-09-17T00:50:04;11.10;99.90
31799;DHT22;18374;51.136;3.502;2022-09-17T00:52:49;11.00;99.90
31799;DHT22;18374;51.136;3.502;2022-09-17T00:55:25;11.00;99.90
31799;DHT22;18374;51.136;3.502;2022-09-17T00:57:59;11.00;99.90
31799;DHT22;18374;51.136;3.502;2022-09-17T01:00:29;11.00;99.90
31799;DHT22;18374;51.136;3.502;2022-09-17T01:02:57;11.00;99.90
31799;DHT22;18374;51.136;3.502;2022-09-17T01:05:48;11.00;99.90
31799;DHT22;18374;51.136;3.502;2022-09-17T01:08:48;11.00;99.90
31799;DHT22;18374;51.136;3.502;2022-09-17T01:16:40;11.10;99.90
31799;DHT22;18374;51.136;3.502;2022-09-17T01:31:10;11.00;99.90
31799;DHT22;18374;51.136;3.502;2022-09-17T01:34:10;11.10;99.90
31799;DHT22;18374;51.136;3.502;2022-09-17T01:37:08;11.10;99.90
31799;DHT22;18374;51.136;3.502;2022-09-17T01:39:59;11.10;99.90
31799;DHT22;18374;51.136;3.502;2022-09-17T01:42:50;11.10;99.90
31799;DHT22;18374;51.136;3.502;2022-09-17T01:45:49;11.00;99.90
31799;DHT22;18374;51.136;3.502;2022-09-17T01:48:20;11.00;99.90
31799;DHT22;18374;51.136;3.502;2022-09-17T01:51:12;11.00;99.90
31799;DHT22;18374;51.136;3.502;2022-09-17T01:54:05;11.00;99.90
31799;DHT22;18374;51.136;3.502;2022-09-17T01:56:40;11.00;99.90
31799;DHT22;18374;51.136;3.502;2022-09-17T01:59:28;10.90;99.90
31799;DHT22;18374;51.136;3.502;2022-09-17T02:05:29;10.90;99.90
31799;DHT22;18374;51.136;3.502;2022-09-17T02:10:44;10.80;99.90
31799;DHT22;18374;51.136;3.502;2022-09-17T02:16:05;10.80;99.90
31799;DHT22;18374;51.136;3.502;2022-09-17T02:22:02;10.70;99.90
31799;DHT22;18374;51.136;3.502;2022-09-17T02:27:59;10.60;99.90
31799;DHT22;18374;51.136;3.502;2022-09-17T02:30:30;10.60;99.90
31799;DHT22;18374;51.136;3.502;2022-09-17T02:33:00;10.60;99.90
31799;DHT22;18374;51.136;3.502;2022-09-17T02:35:30;10.60;99.90
31799;DHT22;18374;51.136;3.502;2022-09-17T02:37:59;10.60;99.90
31799;DHT22;18374;51.136;3.502;2022-09-17T02:40:29;10.60;99.90
31799;DHT22;18374;51.136;3.502;2022-09-17T02:43:08;10.70;99.90
31799;DHT22;18374;51.136;3.502;2022-09-17T02:54:40;10.80;99.90
31799;DHT22;18374;51.136;3.502;2022-09-17T02:57:24;10.80;99.90
31799;DHT22;18374;51.136;3.502;2022-09-17T03:00:18;10.80;99.90
31799;DHT22;18374;51.136;3.502;2022-09-17T03:02:54;10.80;99.90
31799;DHT22;18374;51.136;3.502;2022-09-17T03:05:28;10.80;99.90
31799;DHT22;18374;51.136;3.502;2022-09-17T03:07:58;10.80;99.90
31799;DHT22;18374;51.136;3.502;2022-09-17T03:10:27;10.80;99.90
31799;DHT22;18374;51.136;3.502;2022-09-17T03:12:59;10.80;99.90
31799;DHT22;18374;51.136;3.502;2022-09-17T03:15:27;10.70;99.90
31799;DHT22;18374;51.136;3.502;2022-09-17T03:17:54;10.60;99.90
31799;DHT22;18374;51.136;3.502;2022-09-17T03:20:22;10.60;99.90
31799;DHT22;18374;51.136;3.502;2022-09-17T03:22:53;10.60;99.90
31799;DHT22;18374;51.136;3.502;2022-09-17T03:25:20;10.50;99.90
31799;DHT22;18374;51.136;3.502;2022-09-17T03:27:48;10.50;99.90
31799;DHT22;18374;51.136;3.502;2022-09-17T03:30:16;10.40;99.90
31799;DHT22;18374;51.136;3.502;2022-09-17T03:32:44;10.40;99.90
31799;DHT22;18374;51.136;3.502;2022-09-17T03:35:12;10.40;99.90
31799;DHT22;18374;51.136;3.502;2022-09-17T03:37:40;10.40;99.90
31799;DHT22;18374;51.136;3.502;2022-09-17T03:40:07;10.40;99.90
31799;DHT22;18374;51.136;3.502;2022-09-17T03:42:35;10.40;99.90
31799;DHT22;18374;51.136;3.502;2022-09-17T03:45:03;10.40;99.90
31799;DHT22;18374;51.136;3.502;2022-09-17T03:47:31;10.40;99.90
31799;DHT22;18374;51.136;3.502;2022-09-17T03:49:59;10.40;99.90
31799;DHT22;18374;51.136;3.502;2022-09-17T03:52:27;10.50;99.90
31799;DHT22;18374;51.136;3.502;2022-09-17T03:54:54;10.40;99.90
31799;DHT22;18374;51.136;3.502;2022-09-17T03:57:22;10.40;99.90
31799;DHT22;18374;51.136;3.502;2022-09-17T03:59:49;10.40;99.90
31799;DHT22;18374;51.136;3.502;2022-09-17T04:02:17;10.40;99.90
31799;DHT22;18374;51.136;3.502;2022-09-17T04:04:45;10.50;99.90
31799;DHT22;18374;51.136;3.502;2022-09-17T04:07:12;10.50;99.90
31799;DHT22;18374;51.136;3.502;2022-09-17T04:09:40;10.60;99.90
31799;DHT22;18374;51.136;3.502;2022-09-17T04:12:08;10.60;99.90
31799;DHT22;18374;51.136;3.502;2022-09-17T04:14:35;10.60;99.90
31799;DHT22;18374;51.136;3.502;2022-09-17T04:17:03;10.70;99.90
31799;DHT22;18374;51.136;3.502;2022-09-17T04:19:31;10.60;99.90
31799;DHT22;18374;51.136;3.502;2022-09-17T04:21:58;10.60;99.90
31799;DHT22;18374;51.136;3.502;2022-09-17T04:24:26;10.60;99.90
31799;DHT22;18374;51.136;3.502;2022-09-17T04:26:54;10.60;99.90
31799;DHT22;18374;51.136;3.502;2022-09-17T04:29:21;10.60;99.90
31799;DHT22;18374;51.136;3.502;2022-09-17T04:31:49;10.60;99.90
31799;DHT22;18374;51.136;3.502;2022-09-17T04:34:16;10.50;99.90
31799;DHT22;18374;51.136;3.502;2022-09-17T04:36:44;10.60;99.90
31799;DHT22;18374;51.136;3.502;2022-09-17T04:39:12;10.60;99.90
31799;DHT22;18374;51.136;3.502;2022-09-17T04:41:40;10.60;99.90
31799;DHT22;18374;51.136;3.502;2022-09-17T04:44:07;10.60;99.90
31799;DHT22;18374;51.136;3.502;2022-09-17T04:46:35;10.60;99.90
31799;DHT22;18374;51.136;3.502;2022-09-17T04:49:02;10.60;99.90
31799;DHT22;18374;51.136;3.502;2022-09-17T04:51:30;10.70;99.90
31799;DHT22;18374;51.136;3.502;2022-09-17T04:53:58;10.80;99.90
31799;DHT22;18374;51.136;3.502;2022-09-17T04:56:25;10.90;99.90
31799;DHT22;18374;51.136;3.502;2022-09-17T04:58:53;10.80;99.90
31799;DHT22;18374;51.136;3.502;2022-09-17T05:01:21;10.80;99.90
31799;DHT22;18374;51.136;3.502;2022-09-17T05:03:48;10.80;99.90
31799;DHT22;18374;51.136;3.502;2022-09-17T05:06:16;10.80;99.90
31799;DHT22;18374;51.136;3.502;2022-09-17T05:08:44;10.80;99.90
31799;DHT22;18374;51.136;3.502;2022-09-17T05:11:12;10.70;99.90
31799;DHT22;18374;51.136;3.502;2022-09-17T05:13:39;10.70;99.90
31799;DHT22;18374;51.136;3.502;2022-09-17T05:16:07;10.70;99.90
31799;DHT22;18374;51.136;3.502;2022-09-17T05:18:35;10.70;99.90
31799;DHT22;18374;51.136;3.502;2022-09-17T05:21:02;10.70;99.90
31799;DHT22;18374;51.136;3.502;2022-09-17T05:23:30;10.80;99.90
31799;DHT22;18374;51.136;3.502;2022-09-17T05:25:58;10.80;99.90
31799;DHT22;18374;51.136;3.502;2022-09-17T05:28:27;10.80;99.90
31799;DHT22;18374;51.136;3.502;2022-09-17T05:30:58;10.80;99.90
31799;DHT22;18374;51.136;3.502;2022-09-17T05:33:26;10.80;99.90
31799;DHT22;18374;51.136;3.502;2022-09-17T05:35:54;10.70;99.90
31799;DHT22;18374;51.136;3.502;2022-09-17T05:38:22;10.70;99.90
31799;DHT22;18374;51.136;3.502;2022-09-17T05:40:49;10.70;99.90
31799;DHT22;18374;51.136;3.502;2022-09-17T05:43:17;10.70;99.90
31799;DHT22;18374;51.136;3.502;2022-09-17T05:45:45;10.60;99.90
31799;DHT22;18374;51.136;3.502;2022-09-17T05:48:13;10.60;99.90
31799;DHT22;18374;51.136;3.502;2022-09-17T05:50:41;10.50;99.90
31799;DHT22;18374;51.136;3.502;2022-09-17T05:53:11;10.50;99.90
31799;DHT22;18374;51.136;3.502;2022-09-17T05:55:39;10.50;99.90
31799;DHT22;18374;51.136;3.502;2022-09-17T05:58:12;10.50;99.90
31799;DHT22;18374;51.136;3.502;2022-09-17T06:00:45;10.60;99.90
31799;DHT22;18374;51.136;3.502;2022-09-17T06:03:16;10.60;99.90
31799;DHT22;18374;51.136;3.502;2022-09-17T06:05:54;10.60;99.90
31799;DHT22;18374;51.136;3.502;2022-09-17T06:08:24;10.70;99.90
31799;DHT22;18374;51.136;3.502;2022-09-17T06:10:53;10.80;99.90
31799;DHT22;18374;51.136;3.502;2022-09-17T06:13:26;10.80;99.90
31799;DHT22;18374;51.136;3.502;2022-09-17T06:15:54;10.80;99.90
31799;DHT22;18374;51.136;3.502;2022-09-17T06:18:21;10.90;99.90
31799;DHT22;18374;51.136;3.502;2022-09-17T06:20:58;10.90;99.90
31799;DHT22;18374;51.136;3.502;2022-09-17T06:23:30;10.90;99.90
31799;DHT22;18374;51.136;3.502;2022-09-17T06:26:00;11.00;99.90
31799;DHT22;18374;51.136;3.502;2022-09-17T06:28:29;11.00;99.90
31799;DHT22;18374;51.136;3.502;2022-09-17T06:31:05;11.00;99.90
31799;DHT22;18374;51.136;3.502;2022-09-17T06:33:34;11.00;99.90
31799;DHT22;18374;51.136;3.502;2022-09-17T06:36:05;11.00;99.90
31799;DHT22;18374;51.136;3.502;2022-09-17T06:38:40;11.00;99.90
31799;DHT22;18374;51.136;3.502;2022-09-17T06:41:08;11.00;99.90
31799;DHT22;18374;51.136;3.502;2022-09-17T06:43:35;10.90;99.90
31799;DHT22;18374;51.136;3.502;2022-09-17T06:46:05;10.70;99.90
31799;DHT22;18374;51.136;3.502;2022-09-17T06:48:36;10.60;99.90
31799;DHT22;18374;51.136;3.502;2022-09-17T06:51:06;10.50;99.90
31799;DHT22;18374;51.136;3.502;2022-09-17T06:53:35;10.40;99.90
31799;DHT22;18374;51.136;3.502;2022-09-17T06:56:05;10.30;99.90
31799;DHT22;18374;51.136;3.502;2022-09-17T06:58:35;10.30;99.90
31799;DHT22;18374;51.136;3.502;2022-09-17T07:01:04;10.20;99.90
31799;DHT22;18374;51.136;3.502;2022-09-17T07:03:33;10.20;99.90
31799;DHT22;18374;51.136;3.502;2022-09-17T07:06:01;10.30;99.90
31799;DHT22;18374;51.136;3.502;2022-09-17T07:08:31;10.30;99.90
31799;DHT22;18374;51.136;3.502;2022-09-17T07:11:01;10.30;99.90
31799;DHT22;18374;51.136;3.502;2022-09-17T07:13:28;10.40;99.90
31799;DHT22;18374;51.136;3.502;2022-09-17T07:15:58;10.40;99.90
31799;DHT22;18374;51.136;3.502;2022-09-17T07:18:27;10.40;99.90
31799;DHT22;18374;51.136;3.502;2022-09-17T07:20:59;10.40;99.90
31799;DHT22;18374;51.136;3.502;2022-09-17T07:23:33;10.40;99.90
31799;DHT22;18374;51.136;3.502;2022-09-17T07:26:07;10.50;99.90
31799;DHT22;18374;51.136;3.502;2022-09-17T07:28:40;10.60;99.90
31799;DHT22;18374;51.136;3.502;2022-09-17T07:31:09;10.60;99.90
31799;DHT22;18374;51.136;3.502;2022-09-17T07:33:43;10.70;99.90
31799;DHT22;18374;51.136;3.502;2022-09-17T07:36:13;10.90;99.90
31799;DHT22;18374;51.136;3.502;2022-09-17T07:38:41;10.90;99.90
31799;DHT22;18374;51.136;3.502;2022-09-17T07:41:14;11.00;99.90
31799;DHT22;18374;51.136;3.502;2022-09-17T07:43:43;11.00;99.90
31799;DHT22;18374;51.136;3.502;2022-09-17T07:46:18;11.10;99.90
31799;DHT22;18374;51.136;3.502;2022-09-17T07:48:47;11.20;99.90
31799;DHT22;18374;51.136;3.502;2022-09-17T07:51:20;11.20;99.90
31799;DHT22;18374;51.136;3.502;2022-09-17T07:53:51;11.40;99.90
31799;DHT22;18374;51.136;3.502;2022-09-17T07:56:21;11.40;99.90
31799;DHT22;18374;51.136;3.502;2022-09-17T07:58:49;11.40;99.90
31799;DHT22;18374;51.136;3.502;2022-09-17T08:01:17;11.40;99.90
31799;DHT22;18374;51.136;3.502;2022-09-17T08:03:49;11.40;99.90
31799;DHT22;18374;51.136;3.502;2022-09-17T08:06:25;11.30;99.90
31799;DHT22;18374;51.136;3.502;2022-09-17T08:08:56;11.30;99.90
31799;DHT22;18374;51.136;3.502;2022-09-17T08:11:26;11.20;99.90
31799;DHT22;18374;51.136;3.502;2022-09-17T08:14:15;11.30;99.90
31799;DHT22;18374;51.136;3.502;2022-09-17T08:16:43;11.50;99.90
31799;DHT22;18374;51.136;3.502;2022-09-17T08:19:13;11.70;99.90
31799;DHT22;18374;51.136;3.502;2022-09-17T08:21:41;11.80;99.90
31799;DHT22;18374;51.136;3.502;2022-09-17T08:24:09;11.80;99.90
31799;DHT22;18374;51.136;3.502;2022-09-17T08:26:36;11.90;99.90
31799;DHT22;18374;51.136;3.502;2022-09-17T08:29:05;11.90;99.90
31799;DHT22;18374;51.136;3.502;2022-09-17T08:31:33;12.00;99.90
31799;DHT22;18374;51.136;3.502;2022-09-17T08:34:05;12.00;99.90
31799;DHT22;18374;51.136;3.502;2022-09-17T08:36:34;12.10;99.90
31799;DHT22;18374;51.136;3.502;2022-09-17T08:39:02;12.10;99.90
31799;DHT22;18374;51.136;3.502;2022-09-17T08:44:37;12.20;99.90
31799;DHT22;18374;51.136;3.502;2022-09-17T08:50:12;12.30;99.90
31799;DHT22;18374;51.136;3.502;2022-09-17T08:55:56;12.10;99.90
31799;DHT22;18374;51.136;3.502;2022-09-17T09:01:58;11.70;99.90
31799;DHT22;18374;51.136;3.502;2022-09-17T09:07:51;11.60;99.90
31799;DHT22;18374;51.136;3.502;2022-09-17T09:10:32;11.60;99.90
31799;DHT22;18374;51.136;3.502;2022-09-17T09:13:09;11.60;99.90
31799;DHT22;18374;51.136;3.502;2022-09-17T09:15:44;11.60;99.90
31799;DHT22;18374;51.136;3.502;2022-09-17T09:18:34;11.60;99.90
31799;DHT22;18374;51.136;3.502;2022-09-17T09:27:32;11.80;99.90
31799;DHT22;18374;51.136;3.502;2022-09-17T09:30:10;12.10;99.90
31799;DHT22;18374;51.136;3.502;2022-09-17T09:36:11;12.60;99.90
31799;DHT22;18374;51.136;3.502;2022-09-17T09:38:54;12.80;99.90
31799;DHT22;18374;51.136;3.502;2022-09-17T09:41:54;12.70;99.90
31799;DHT22;18374;51.136;3.502;2022-09-17T09:44:30;12.60;99.90
31799;DHT22;18374;51.136;3.502;2022-09-17T09:58:37;13.10;99.90
31799;DHT22;18374;51.136;3.502;2022-09-17T10:01:26;13.30;99.90
31799;DHT22;18374;51.136;3.502;2022-09-17T10:03:54;13.40;99.90
31799;DHT22;18374;51.136;3.502;2022-09-17T10:06:28;13.40;99.90
31799;DHT22;18374;51.136;3.502;2022-09-17T10:11:32;13.30;99.90
31799;DHT22;18374;51.136;3.502;2022-09-17T10:14:14;13.40;99.90
31799;DHT22;18374;51.136;3.502;2022-09-17T10:16:48;13.40;99.90
31799;DHT22;18374;51.136;3.502;2022-09-17T10:19:20;13.30;99.90
31799;DHT22;18374;51.136;3.502;2022-09-17T10:21:52;13.30;99.90
31799;DHT22;18374;51.136;3.502;2022-09-17T10:24:28;13.30;99.90
31799;DHT22;18374;51.136;3.502;2022-09-17T10:27:09;13.40;99.90
31799;DHT22;18374;51.136;3.502;2022-09-17T10:29:48;13.40;99.90
31799;DHT22;18374;51.136;3.502;2022-09-17T10:32:20;13.40;99.90
31799;DHT22;18374;51.136;3.502;2022-09-17T10:37:40;13.10;99.90
31799;DHT22;18374;51.136;3.502;2022-09-17T10:40:30;13.00;99.90
31799;DHT22;18374;51.136;3.502;2022-09-17T10:43:16;13.10;99.90
31799;DHT22;18374;51.136;3.502;2022-09-17T10:45:55;13.20;99.90
31799;DHT22;18374;51.136;3.502;2022-09-17T10:48:31;13.20;99.90
31799;DHT22;18374;51.136;3.502;2022-09-17T10:51:03;13.50;99.90
31799;DHT22;18374;51.136;3.502;2022-09-17T10:53:55;13.80;99.90
31799;DHT22;18374;51.136;3.502;2022-09-17T10:56:35;14.10;99.90
31799;DHT22;18374;51.136;3.502;2022-09-17T11:14:43;14.50;99.90
31799;DHT22;18374;51.136;3.502;2022-09-17T11:31:36;13.40;99.90
31799;DHT22;18374;51.136;3.502;2022-09-17T11:34:41;13.60;99.90
31799;DHT22;18374;51.136;3.502;2022-09-17T11:37:26;13.80;99.90
31799;DHT22;18374;51.136;3.502;2022-09-17T11:42:47;14.40;99.90
31799;DHT22;18374;51.136;3.502;2022-09-17T11:45:34;14.30;99.90
31799;DHT22;18374;51.136;3.502;2022-09-17T11:48:12;13.80;99.90
31799;DHT22;18374;51.136;3.502;2022-09-17T11:50:54;13.30;99.90
31799;DHT22;18374;51.136;3.502;2022-09-17T11:53:33;13.00;99.90
31799;DHT22;18374;51.136;3.502;2022-09-17T11:59:09;12.50;99.90
31799;DHT22;18374;51.136;3.502;2022-09-17T12:01:48;12.40;99.90
31799;DHT22;18374;51.136;3.502;2022-09-17T12:04:42;12.40;99.90
31799;DHT22;18374;51.136;3.502;2022-09-17T12:07:31;12.60;99.90
31799;DHT22;18374;51.136;3.502;2022-09-17T12:19:36;13.90;99.90
31799;DHT22;18374;51.136;3.502;2022-09-17T12:22:13;14.10;99.90
31799;DHT22;18374;51.136;3.502;2022-09-17T12:24:54;14.20;99.90
31799;DHT22;18374;51.136;3.502;2022-09-17T12:28:12;14.40;99.90
31799;DHT22;18374;51.136;3.502;2022-09-17T12:30:31;14.40;99.90
31799;DHT22;18374;51.136;3.502;2022-09-17T12:33:18;14.40;99.90
31799;DHT22;18374;51.136;3.502;2022-09-17T12:44:43;15.10;99.90
31799;DHT22;18374;51.136;3.502;2022-09-17T12:53:35;13.60;99.90
31799;DHT22;18374;51.136;3.502;2022-09-17T12:59:16;12.90;99.90
31799;DHT22;18374;51.136;3.502;2022-09-17T13:02:14;12.80;99.90
31799;DHT22;18374;51.136;3.502;2022-09-17T13:05:43;13.00;99.90
31799;DHT22;18374;51.136;3.502;2022-09-17T13:17:38;14.20;99.90
31799;DHT22;18374;51.136;3.502;2022-09-17T13:23:42;14.20;99.90
31799;DHT22;18374;51.136;3.502;2022-09-17T13:26:13;14.40;99.90
31799;DHT22;18374;51.136;3.502;2022-09-17T13:28:50;14.80;99.90
31799;DHT22;18374;51.136;3.502;2022-09-17T13:36:54;13.90;99.90
31799;DHT22;18374;51.136;3.502;2022-09-17T13:39:46;13.70;99.90
31799;DHT22;18374;51.136;3.502;2022-09-17T13:42:24;13.70;99.90
31799;DHT22;18374;51.136;3.502;2022-09-17T13:45:14;13.80;99.90
31799;DHT22;18374;51.136;3.502;2022-09-17T13:52:57;14.50;99.90
31799;DHT22;18374;51.136;3.502;2022-09-17T13:55:36;14.70;99.90
31799;DHT22;18374;51.136;3.502;2022-09-17T13:58:11;14.90;99.90
31799;DHT22;18374;51.136;3.502;2022-09-17T14:13:54;12.90;99.90
31799;DHT22;18374;51.136;3.502;2022-09-17T14:30:28;12.60;99.90
31799;DHT22;18374;51.136;3.502;2022-09-17T14:35:41;12.60;99.90
31799;DHT22;18374;51.136;3.502;2022-09-17T14:38:43;12.60;99.90
31799;DHT22;18374;51.136;3.502;2022-09-17T14:46:24;12.50;99.90
31799;DHT22;18374;51.136;3.502;2022-09-17T14:51:57;12.60;99.90
31799;DHT22;18374;51.136;3.502;2022-09-17T14:54:28;12.70;99.90
31799;DHT22;18374;51.136;3.502;2022-09-17T14:59:49;13.00;99.90
31799;DHT22;18374;51.136;3.502;2022-09-17T15:02:40;12.90;99.90
31799;DHT22;18374;51.136;3.502;2022-09-17T15:05:17;12.90;99.90
31799;DHT22;18374;51.136;3.502;2022-09-17T15:07:48;12.90;99.90
31799;DHT22;18374;51.136;3.502;2022-09-17T15:10:21;12.90;99.90
31799;DHT22;18374;51.136;3.502;2022-09-17T15:12:49;13.00;99.90
31799;DHT22;18374;51.136;3.502;2022-09-17T15:15:22;13.10;99.90
31799;DHT22;18374;51.136;3.502;2022-09-17T15:17:52;13.30;99.90
31799;DHT22;18374;51.136;3.502;2022-09-17T15:20:23;13.40;99.90
31799;DHT22;18374;51.136;3.502;2022-09-17T15:23:19;13.30;99.90
31799;DHT22;18374;51.136;3.502;2022-09-17T15:25:54;13.10;99.90
31799;DHT22;18374;51.136;3.502;2022-09-17T15:28:33;12.90;99.90
31799;DHT22;18374;51.136;3.502;2022-09-17T15:31:04;12.80;99.90
31799;DHT22;18374;51.136;3.502;2022-09-17T15:33:33;12.80;99.90
31799;DHT22;18374;51.136;3.502;2022-09-17T15:36:17;12.90;99.90
31799;DHT22;18374;51.136;3.502;2022-09-17T15:38:50;12.90;99.90
31799;DHT22;18374;51.136;3.502;2022-09-17T15:41:24;12.90;99.90
31799;DHT22;18374;51.136;3.502;2022-09-17T15:43:53;12.90;99.90
31799;DHT22;18374;51.136;3.502;2022-09-17T15:46:39;12.90;99.90
31799;DHT22;18374;51.136;3.502;2022-09-17T15:49:31;12.90;99.90
31799;DHT22;18374;51.136;3.502;2022-09-17T15:54:58;12.80;99.90
31799;DHT22;18374;51.136;3.502;2022-09-17T15:57:29;12.80;99.90
31799;DHT22;18374;51.136;3.502;2022-09-17T16:00:11;12.80;99.90
31799;DHT22;18374;51.136;3.502;2022-09-17T16:02:40;12.90;99.90
31799;DHT22;18374;51.136;3.502;2022-09-17T16:07:46;13.10;99.90
31799;DHT22;18374;51.136;3.502;2022-09-17T16:10:14;13.10;99.90
31799;DHT22;18374;51.136;3.502;2022-09-17T16:12:42;13.20;99.90
31799;DHT22;18374;51.136;3.502;2022-09-17T16:15:11;13.20;99.90
31799;DHT22;18374;51.136;3.502;2022-09-17T16:17:44;13.30;99.90
31799;DHT22;18374;51.136;3.502;2022-09-17T16:20:15;13.30;99.90
31799;DHT22;18374;51.136;3.502;2022-09-17T16:22:51;13.30;99.90
31799;DHT22;18374;51.136;3.502;2022-09-17T16:25:24;13.50;99.90
31799;DHT22;18374;51.136;3.502;2022-09-17T16:28:07;13.50;99.90
31799;DHT22;18374;51.136;3.502;2022-09-17T16:30:40;13.50;99.90
31799;DHT22;18374;51.136;3.502;2022-09-17T16:33:11;13.00;99.90
31799;DHT22;18374;51.136;3.502;2022-09-17T16:35:39;12.70;99.90
31799;DHT22;18374;51.136;3.502;2022-09-17T16:38:08;12.40;99.90
31799;DHT22;18374;51.136;3.502;2022-09-17T16:40:42;12.20;99.90
31799;DHT22;18374;51.136;3.502;2022-09-17T16:43:13;12.10;99.90
31799;DHT22;18374;51.136;3.502;2022-09-17T16:45:42;12.00;99.90
31799;DHT22;18374;51.136;3.502;2022-09-17T16:48:10;12.00;99.90
31799;DHT22;18374;51.136;3.502;2022-09-17T16:50:39;11.90;99.90
31799;DHT22;18374;51.136;3.502;2022-09-17T16:53:07;11.90;99.90
31799;DHT22;18374;51.136;3.502;2022-09-17T16:55:35;11.90;99.90
31799;DHT22;18374;51.136;3.502;2022-09-17T16:58:03;11.90;99.90
31799;DHT22;18374;51.136;3.502;2022-09-17T17:00:31;12.00;99.90
31799;DHT22;18374;51.136;3.502;2022-09-17T17:02:59;11.90;99.90
31799;DHT22;18374;51.136;3.502;2022-09-17T17:05:27;11.90;99.90
31799;DHT22;18374;51.136;3.502;2022-09-17T17:07:55;11.90;99.90
31799;DHT22;18374;51.136;3.502;2022-09-17T17:10:23;11.90;99.90
31799;DHT22;18374;51.136;3.502;2022-09-17T17:12:53;11.90;99.90
31799;DHT22;18374;51.136;3.502;2022-09-17T17:15:20;11.90;99.90
31799;DHT22;18374;51.136;3.502;2022-09-17T17:17:49;11.90;99.90
31799;DHT22;18374;51.136;3.502;2022-09-17T17:20:18;11.80;99.90
31799;DHT22;18374;51.136;3.502;2022-09-17T17:22:46;11.90;99.90
31799;DHT22;18374;51.136;3.502;2022-09-17T17:25:14;11.80;99.90
31799;DHT22;18374;51.136;3.502;2022-09-17T17:27:42;11.80;99.90
31799;DHT22;18374;51.136;3.502;2022-09-17T17:30:12;11.80;99.90
31799;DHT22;18374;51.136;3.502;2022-09-17T17:32:48;11.80;99.90
31799;DHT22;18374;51.136;3.502;2022-09-17T17:35:18;11.80;99.90
31799;DHT22;18374;51.136;3.502;2022-09-17T17:37:46;11.80;99.90
31799;DHT22;18374;51.136;3.502;2022-09-17T17:40:15;11.80;99.90
31799;DHT22;18374;51.136;3.502;2022-09-17T17:42:43;11.80;99.90
31799;DHT22;18374;51.136;3.502;2022-09-17T17:45:13;11.90;99.90
31799;DHT22;18374;51.136;3.502;2022-09-17T17:47:41;11.90;99.90
31799;DHT22;18374;51.136;3.502;2022-09-17T17:50:09;11.90;99.90
31799;DHT22;18374;51.136;3.502;2022-09-17T17:52:39;11.90;99.90
31799;DHT22;18374;51.136;3.502;2022-09-17T17:55:09;12.00;99.90
31799;DHT22;18374;51.136;3.502;2022-09-17T17:57:37;11.90;99.90
31799;DHT22;18374;51.136;3.502;2022-09-17T18:00:05;12.00;99.90
31799;DHT22;18374;51.136;3.502;2022-09-17T18:02:39;12.00;99.90
31799;DHT22;18374;51.136;3.502;2022-09-17T18:05:26;12.00;99.90
31799;DHT22;18374;51.136;3.502;2022-09-17T18:07:54;12.00;99.90
31799;DHT22;18374;51.136;3.502;2022-09-17T18:10:21;12.00;99.90
31799;DHT22;18374;51.136;3.502;2022-09-17T18:12:50;12.00;99.90
31799;DHT22;18374;51.136;3.502;2022-09-17T18:15:19;12.00;99.90
31799;DHT22;18374;51.136;3.502;2022-09-17T18:17:47;12.00;99.90
31799;DHT22;18374;51.136;3.502;2022-09-17T18:20:16;12.00;99.90
31799;DHT22;18374;51.136;3.502;2022-09-17T18:22:45;12.00;99.90
31799;DHT22;18374;51.136;3.502;2022-09-17T18:25:12;11.90;99.90
31799;DHT22;18374;51.136;3.502;2022-09-17T18:27:40;11.90;99.90
31799;DHT22;18374;51.136;3.502;2022-09-17T18:30:09;11.90;99.90
31799;DHT22;18374;51.136;3.502;2022-09-17T18:32:37;11.90;99.90
31799;DHT22;18374;51.136;3.502;2022-09-17T18:35:06;11.90;99.90
31799;DHT22;18374;51.136;3.502;2022-09-17T18:37:34;11.80;99.90
31799;DHT22;18374;51.136;3.502;2022-09-17T18:40:01;11.80;99.90
31799;DHT22;18374;51.136;3.502;2022-09-17T18:42:30;11.80;99.90
31799;DHT22;18374;51.136;3.502;2022-09-17T18:44:58;11.80;99.90
31799;DHT22;18374;51.136;3.502;2022-09-17T18:47:26;11.70;99.90
31799;DHT22;18374;51.136;3.502;2022-09-17T18:49:53;11.70;99.90
31799;DHT22;18374;51.136;3.502;2022-09-17T18:52:21;11.60;99.90
31799;DHT22;18374;51.136;3.502;2022-09-17T18:54:48;11.60;99.90
31799;DHT22;18374;51.136;3.502;2022-09-17T18:57:16;11.60;99.90
31799;DHT22;18374;51.136;3.502;2022-09-17T18:59:44;11.60;99.90
31799;DHT22;18374;51.136;3.502;2022-09-17T19:02:12;11.60;99.90
31799;DHT22;18374;51.136;3.502;2022-09-17T19:04:40;11.60;99.90
31799;DHT22;18374;51.136;3.502;2022-09-17T19:07:08;11.60;99.90
31799;DHT22;18374;51.136;3.502;2022-09-17T19:09:35;11.70;99.90
31799;DHT22;18374;51.136;3.502;2022-09-17T19:12:03;11.80;99.90
31799;DHT22;18374;51.136;3.502;2022-09-17T19:14:31;11.80;99.90
31799;DHT22;18374;51.136;3.502;2022-09-17T19:16:59;11.80;99.90
31799;DHT22;18374;51.136;3.502;2022-09-17T19:19:26;11.80;99.90
31799;DHT22;18374;51.136;3.502;2022-09-17T19:21:55;11.80;99.90
31799;DHT22;18374;51.136;3.502;2022-09-17T19:24:25;11.80;99.90
31799;DHT22;18374;51.136;3.502;2022-09-17T19:26:53;11.80;99.90
31799;DHT22;18374;51.136;3.502;2022-09-17T19:29:20;11.80;99.90
31799;DHT22;18374;51.136;3.502;2022-09-17T19:31:48;11.70;99.90
31799;DHT22;18374;51.136;3.502;2022-09-17T19:34:16;11.70;99.90
31799;DHT22;18374;51.136;3.502;2022-09-17T19:36:44;11.70;99.90
31799;DHT22;18374;51.136;3.502;2022-09-17T19:39:11;11.70;99.90
31799;DHT22;18374;51.136;3.502;2022-09-17T19:41:40;11.70;99.90
31799;DHT22;18374;51.136;3.502;2022-09-17T19:44:07;11.70;99.90
31799;DHT22;18374;51.136;3.502;2022-09-17T19:46:35;11.70;99.90
31799;DHT22;18374;51.136;3.502;2022-09-17T19:49:03;11.70;99.90